Time;durP1;ratioP1;P1;durP2;ratioP2;P2;SDS_P1;SDS_P2;PMS_P1;PMS_P2;Temp;Humidity;BMP_temperature;BMP_pressure;BME280_temperature;BME280_humidity;BME280_pressure;Samples;Min_cycle;Max_cycle;Signal;HPM_P1;HPM_P2
2021/01/30 00:00:46;;;;;;;5.35;1.35;;;;;;;1.83;86.38;100429.22;4971941;28;20069;-59
2021/01/30 00:03:14;;;;;;;4.47;1.20;;;;;;;1.75;85.98;100437.09;4972018;28;20046;-60
2021/01/30 00:05:41;;;;;;;5.65;1.50;;;;;;;1.71;86.31;100437.56;4974021;28;20062;-56
2021/01/30 00:08:11;;;;;;;7.25;2.05;;;;;;;1.63;85.89;100434.41;4975219;28;20055;-61
2021/01/30 00:10:38;;;;;;;4.28;1.40;;;;;;;1.58;85.48;100426.94;4976560;28;20050;-57
2021/01/30 00:13:06;;;;;;;5.35;1.45;;;;;;;1.50;85.81;100429.25;4987745;28;20527;-62
2021/01/30 00:15:34;;;;;;;4.38;1.00;;;;;;;1.46;85.87;100428.09;4976247;28;20078;-58
2021/01/30 00:18:01;;;;;;;4.72;1.30;;;;;;;1.42;85.93;100421.41;4975680;28;20061;-59
2021/01/30 00:20:31;;;;;;;6.25;1.50;;;;;;;1.38;85.36;100440.34;4975604;28;20051;-57
2021/01/30 00:22:59;;;;;;;6.75;1.83;;;;;;;1.31;85.52;100440.50;4976090;28;20083;-61
2021/01/30 00:25:29;;;;;;;5.45;1.50;;;;;;;1.28;85.67;100441.00;4975897;28;20145;-56
2021/01/30 00:27:57;;;;;;;5.22;1.45;;;;;;;1.26;85.78;100442.31;4974978;28;20065;-62
2021/01/30 00:30:26;;;;;;;5.22;1.40;;;;;;;1.25;85.70;100433.25;4975997;28;20141;-58
2021/01/30 00:32:56;;;;;;;4.30;1.40;;;;;;;1.23;86.09;100440.06;4975590;28;20495;-58
2021/01/30 00:35:24;;;;;;;3.72;1.25;;;;;;;1.20;85.69;100440.59;4971896;28;20058;-55
2021/01/30 00:37:51;;;;;;;3.60;1.00;;;;;;;1.17;85.97;100446.56;4975763;28;20468;-55
2021/01/30 00:40:19;;;;;;;3.65;1.10;;;;;;;1.15;85.69;100443.22;4975570;28;20122;-58
2021/01/30 00:42:46;;;;;;;3.53;1.08;;;;;;;1.11;85.63;100447.53;4975128;28;20491;-55
2021/01/30 00:45:16;;;;;;;6.93;0.95;;;;;;;1.07;85.80;100441.72;4975326;28;20535;-55
2021/01/30 00:47:43;;;;;;;4.18;0.93;;;;;;;1.01;85.66;100435.28;4976100;28;20049;-57
2021/01/30 00:50:12;;;;;;;3.92;1.23;;;;;;;1.01;86.01;100437.19;4958648;28;20059;-60
2021/01/30 00:52:42;;;;;;;4.60;0.90;;;;;;;0.96;85.78;100437.94;4974381;28;20054;-55
2021/01/30 00:55:26;;;;;;;5.90;1.00;;;;;;;0.95;86.09;100438.19;4970547;28;20129;-59
2021/01/30 00:57:58;;;;;;;;;;;;;;;0.87;85.83;100441.31;4974641;28;20050;-62
2021/01/30 01:00:29;;;;;;;3.45;0.70;;;;;;;0.83;85.64;100443.72;4990052;28;19922;-57
2021/01/30 01:02:59;;;;;;;4.45;1.17;;;;;;;0.84;85.65;100436.31;4973697;28;20521;-58
2021/01/30 01:05:37;;;;;;;3.25;0.60;;;;;;;0.82;85.97;100433.81;4973679;28;20043;-58
2021/01/30 01:08:04;;;;;;;4.32;0.63;;;;;;;0.82;85.55;100431.06;4975231;28;20194;-62
2021/01/30 01:10:31;;;;;;;4.28;0.63;;;;;;;0.82;85.66;100436.56;4974076;28;20496;-57
2021/01/30 01:12:59;;;;;;;3.67;1.00;;;;;;;0.81;85.21;100451.38;4975444;28;20051;-57
2021/01/30 01:15:26;;;;;;;5.55;1.20;;;;;;;0.81;85.92;100453.28;4974872;28;20046;-57
2021/01/30 01:17:52;;;;;;;2.88;0.80;;;;;;;0.81;85.58;100443.13;4973275;28;20082;-58
2021/01/30 01:20:22;;;;;;;4.72;1.00;;;;;;;0.84;85.71;100450.06;4974546;28;20050;-54
2021/01/30 01:22:50;;;;;;;2.47;0.82;;;;;;;0.86;85.43;100451.47;4975081;28;20137;-57
2021/01/30 01:25:18;;;;;;;5.43;0.80;;;;;;;0.92;85.04;100446.94;4973722;28;20062;-59
2021/01/30 01:27:45;;;;;;;5.00;0.80;;;;;;;0.93;85.43;100452.19;4975026;28;20054;-55
2021/01/30 01:30:13;;;;;;;6.03;1.17;;;;;;;0.95;85.29;100454.69;4974360;28;20061;-59
2021/01/30 01:32:40;;;;;;;4.90;0.90;;;;;;;0.96;85.56;100464.59;4974816;28;20053;-57
2021/01/30 01:35:08;;;;;;;5.32;0.90;;;;;;;0.94;85.86;100464.84;4974442;28;20064;-59
2021/01/30 01:37:35;;;;;;;5.97;1.50;;;;;;;0.96;85.80;100461.84;4972721;28;20738;-57
2021/01/30 01:40:05;;;;;;;4.22;1.17;;;;;;;0.98;85.92;100466.03;4974482;28;20467;-59
2021/01/30 01:42:32;;;;;;;4.95;0.90;;;;;;;1.00;85.44;100466.56;4973987;28;20045;-56
2021/01/30 01:44:59;;;;;;;4.00;0.95;;;;;;;1.00;86.10;100474.81;4973930;28;20129;-61
2021/01/30 01:47:31;;;;;;;3.58;0.95;;;;;;;0.96;86.28;100468.16;4974334;28;20128;-55
2021/01/30 01:50:02;;;;;;;5.32;1.40;;;;;;;0.95;85.77;100474.75;4974584;28;20085;-59
2021/01/30 01:52:32;;;;;;;3.63;1.00;;;;;;;0.93;85.79;100474.16;4971681;28;20573;-53
2021/01/30 01:55:03;;;;;;;3.75;1.15;;;;;;;0.90;86.14;100474.63;4974568;28;20165;-54
2021/01/30 01:57:32;;;;;;;4.07;1.17;;;;;;;0.86;86.08;100467.97;4970952;28;20460;-57
2021/01/30 01:59:59;;;;;;;2.72;0.98;;;;;;;0.85;85.75;100474.53;4954432;29;20065;-60
2021/01/30 02:02:30;;;;;;;4.32;1.38;;;;;;;0.81;85.65;100480.75;4972494;28;20054;-55
2021/01/30 02:05:02;;;;;;;4.07;1.20;;;;;;;0.79;86.07;100483.78;4974473;28;20050;-57
2021/01/30 02:07:30;;;;;;;3.88;1.10;;;;;;;0.79;85.51;100493.91;4973643;28;20067;-52
2021/01/30 02:09:58;;;;;;;6.47;1.20;;;;;;;0.77;85.54;100490.59;4974018;28;20057;-55
2021/01/30 02:12:26;;;;;;;5.43;1.20;;;;;;;0.75;85.56;100493.56;4973311;28;20133;-52
2021/01/30 02:14:55;;;;;;;5.75;1.20;;;;;;;0.75;85.58;100495.47;4974034;28;20077;-52
2021/01/30 02:17:37;;;;;;;6.93;1.55;;;;;;;0.71;85.71;100486.88;4973469;28;20049;-56
2021/01/30 02:20:45;;;;;;;3.15;1.13;;;;;;;0.72;86.03;100490.47;4973639;28;20109;-55
2021/01/30 02:23:56;;;;;;;5.63;1.52;;;;;;;0.69;85.73;100494.53;4972202;28;20411;-55
2021/01/30 02:27:00;;;;;;;4.97;1.50;;;;;;;0.69;86.32;100494.53;4964482;28;20186;-55
2021/01/30 02:30:07;;;;;;;4.00;1.42;;;;;;;0.68;86.08;100490.13;4972030;28;20500;-52
2021/01/30 02:32:47;;;;;;;5.65;1.40;;;;;;;0.64;86.45;100486.19;4973416;28;20061;-57
2021/01/30 02:35:25;;;;;;;7.07;1.77;;;;;;;0.63;86.09;100488.09;4973214;28;20141;-52
2021/01/30 02:37:59;;;;;;;6.90;1.75;;;;;;;0.62;86.00;100491.91;4973224;28;20057;-56
2021/01/30 02:40:34;;;;;;;4.78;1.80;;;;;;;0.59;86.37;100488.84;4973951;28;20086;-52
2021/01/30 02:43:05;;;;;;;4.35;1.27;;;;;;;0.56;86.36;100481.94;4973418;28;20053;-54
2021/01/30 02:45:37;;;;;;;6.05;1.65;;;;;;;0.53;86.39;100490.66;4973626;28;20046;-54
2021/01/30 02:48:10;;;;;;;5.20;1.60;;;;;;;0.50;86.46;100487.53;4972610;28;20051;-52
2021/01/30 02:50:45;;;;;;;6.82;2.03;;;;;;;0.46;85.96;100484.44;4973570;28;20507;-52
2021/01/30 02:53:16;;;;;;;15.15;2.72;;;;;;;0.42;86.13;100476.94;4973167;28;20050;-50
2021/01/30 02:55:44;;;;;;;5.13;1.80;;;;;;;0.41;86.45;100478.00;4973048;28;20057;-48
2021/01/30 02:58:13;;;;;;;6.68;2.05;;;;;;;0.40;86.74;100479.09;4972869;28;20798;-52
2021/01/30 03:00:41;;;;;;;5.30;2.08;;;;;;;0.36;86.86;100478.75;4962495;28;20219;-52
2021/01/30 03:03:08;;;;;;;6.78;2.00;;;;;;;0.35;86.72;100482.56;4972186;28;20153;-53
2021/01/30 03:05:35;;;;;;;5.45;1.80;;;;;;;0.31;86.41;100479.47;4973278;28;20141;-54
2021/01/30 03:08:28;;;;;;;6.05;2.20;;;;;;;0.30;86.86;100483.28;4972860;28;20428;-56
2021/01/30 03:11:02;;;;;;;5.65;2.15;;;;;;;0.26;87.21;100492.22;4959404;28;20046;-56
2021/01/30 03:13:34;;;;;;;5.43;1.92;;;;;;;0.25;87.02;100499.63;4972568;28;20141;-55
2021/01/30 03:16:07;;;;;;;5.88;1.92;;;;;;;0.22;87.25;100500.09;4972640;28;20047;-53
2021/01/30 03:18:36;;;;;;;6.85;1.88;;;;;;;0.23;86.72;100495.44;4972675;28;20426;-54
2021/01/30 03:21:05;;;;;;;6.40;2.03;;;;;;;0.21;87.18;100503.09;4972744;28;20488;-51
2021/01/30 03:23:34;;;;;;;3.28;1.70;;;;;;;0.20;87.07;100496.75;4972055;28;20564;-50
2021/01/30 03:26:05;;;;;;;4.80;2.10;;;;;;;0.20;87.36;100499.50;4972557;28;20043;-50
2021/01/30 03:28:32;;;;;;;5.88;2.20;;;;;;;0.20;87.68;100501.44;4972659;28;20074;-52
2021/01/30 03:31:00;;;;;;;5.53;2.33;;;;;;;0.19;87.58;100494.28;4971953;28;20385;-50
2021/01/30 03:33:27;;;;;;;5.38;1.92;;;;;;;0.19;87.25;100497.88;4972730;28;20117;-50
2021/01/30 03:35:54;;;;;;;3.70;1.75;;;;;;;0.19;86.98;100495.13;4972333;28;20130;-52
2021/01/30 03:38:21;;;;;;;4.07;1.88;;;;;;;0.19;87.62;100499.78;4971975;28;20051;-53
2021/01/30 03:40:49;;;;;;;6.35;2.10;;;;;;;0.18;86.82;100501.69;4971523;28;20074;-53
2021/01/30 03:43:16;;;;;;;8.55;2.20;;;;;;;0.16;87.47;100498.34;4972692;28;20133;-52
2021/01/30 03:45:43;;;;;;;3.92;2.00;;;;;;;0.18;86.82;100509.06;4971649;28;20051;-55
2021/01/30 03:48:10;;;;;;;5.03;1.70;;;;;;;0.16;87.30;100508.47;4972349;28;20046;-51
2021/01/30 03:50:37;;;;;;;6.32;2.17;;;;;;;0.14;87.32;100502.41;4971935;28;20145;-54
2021/01/30 03:53:07;;;;;;;5.55;1.95;;;;;;;0.13;86.93;100507.03;4971728;28;20492;-54
2021/01/30 03:55:34;;;;;;;5.00;1.83;;;;;;;0.11;87.36;100500.97;4972188;28;20051;-52
2021/01/30 03:58:02;;;;;;;4.03;1.60;;;;;;;0.09;87.22;100508.59;4972001;28;20059;-54
2021/01/30 04:00:29;;;;;;;3.95;1.80;;;;;;;0.08;87.45;100515.16;4972086;28;20134;-48
2021/01/30 04:02:56;;;;;;;4.95;2.10;;;;;;;0.08;86.64;100519.81;4972212;28;20047;-50
2021/01/30 04:05:27;;;;;;;4.32;1.40;;;;;;;0.07;87.18;100526.38;4971299;28;20046;-53
2021/01/30 04:07:55;;;;;;;4.40;1.77;;;;;;;0.05;86.94;100531.25;4961815;28;20050;-50
2021/01/30 04:10:25;;;;;;;7.75;1.77;;;;;;;0.02;87.40;100531.72;4972018;28;20146;-51
2021/01/30 04:12:53;;;;;;;6.22;1.98;;;;;;;0.00;86.79;100523.75;4971638;28;20488;-47
2021/01/30 04:15:25;;;;;;;4.82;1.83;;;;;;;-0.02;87.19;100521.25;4972134;28;20055;-56
2021/01/30 04:17:52;;;;;;;6.25;1.98;;;;;;;-0.04;86.62;100525.31;4969395;28;20039;-56
2021/01/30 04:20:20;;;;;;;6.43;1.80;;;;;;;-0.06;87.16;100520.03;4971440;28;20082;-51
2021/01/30 04:22:47;;;;;;;6.25;1.85;;;;;;;-0.05;87.37;100531.84;4971921;28;20055;-53
2021/01/30 04:25:15;;;;;;;4.40;2.03;;;;;;;-0.05;86.91;100523.63;4972069;28;20133;-51
2021/01/30 04:27:42;;;;;;;7.22;2.20;;;;;;;-0.07;87.13;100528.50;4971444;28;20042;-50
2021/01/30 04:30:11;;;;;;;7.05;2.15;;;;;;;-0.08;87.19;100526.84;4972179;28;20074;-49
2021/01/30 04:32:39;;;;;;;4.93;1.98;;;;;;;-0.08;86.71;100535.91;4971459;28;20053;-50
2021/01/30 04:35:08;;;;;;;6.30;2.08;;;;;;;-0.09;87.20;100533.41;4952733;28;20063;-51
2021/01/30 04:37:34;;;;;;;4.30;2.13;;;;;;;-0.09;87.38;100541.63;4970425;28;20057;-55
2021/01/30 04:40:01;;;;;;;7.15;2.30;;;;;;;-0.10;86.89;100542.69;4972072;28;20051;-55
2021/01/30 04:42:36;;;;;;;4.25;2.10;;;;;;;-0.09;86.95;100544.38;4971079;28;20053;-57
2021/01/30 04:45:09;;;;;;;6.13;2.83;;;;;;;-0.11;87.32;100539.13;4972176;28;20047;-52
2021/01/30 04:47:47;;;;;;;6.00;2.05;;;;;;;-0.12;86.77;100534.69;4970969;28;20054;-52
2021/01/30 04:50:25;;;;;;;7.05;2.55;;;;;;;-0.14;87.04;100528.63;4971908;28;20087;-53
2021/01/30 04:53:00;;;;;;;6.43;2.38;;;;;;;-0.17;86.69;100531.00;4974718;28;20054;-54
2021/01/30 04:55:40;;;;;;;6.32;2.35;;;;;;;-0.20;86.70;100529.56;4974963;28;20050;-57
2021/01/30 04:58:14;;;;;;;6.28;2.50;;;;;;;-0.22;87.08;100528.16;4975330;28;20424;-57
2021/01/30 05:00:54;;;;;;;5.78;2.25;;;;;;;-0.24;87.06;100530.28;4975640;28;20062;-58
2021/01/30 05:03:46;;;;;;;6.78;2.60;;;;;;;-0.26;86.76;100514.06;4974620;28;20113;-58
2021/01/30 05:06:23;;;;;;;6.15;2.30;;;;;;;-0.29;87.03;100516.44;4956345;28;20047;-54
2021/01/30 05:08:59;;;;;;;9.15;2.63;;;;;;;-0.28;87.59;100523.59;4974378;28;20084;-51
2021/01/30 05:11:28;;;;;;;7.88;2.55;;;;;;;-0.29;87.51;100513.72;4956018;28;20050;-52
2021/01/30 05:14:01;;;;;;;5.78;2.85;;;;;;;-0.27;88.17;100514.31;4974502;28;20062;-51
2021/01/30 05:16:32;;;;;;;6.43;2.75;;;;;;;-0.26;87.58;100515.97;4974517;28;20058;-51
2021/01/30 05:19:04;;;;;;;6.70;2.67;;;;;;;-0.26;87.64;100513.25;4974814;28;20049;-53
2021/01/30 05:21:39;;;;;;;9.95;2.95;;;;;;;-0.25;87.61;100509.44;4973968;28;20061;-56
2021/01/30 05:24:10;;;;;;;8.70;3.42;;;;;;;-0.26;87.70;100514.06;4973653;28;20047;-56
2021/01/30 05:26:48;;;;;;;7.65;2.92;;;;;;;-0.24;87.95;100511.09;4974923;28;20053;-55
2021/01/30 05:29:18;;;;;;;8.63;3.42;;;;;;;-0.25;87.58;100506.69;4974620;28;20133;-54
2021/01/30 05:31:53;;;;;;;8.05;3.33;;;;;;;-0.27;87.72;100506.09;4974632;28;20559;-54
2021/01/30 05:34:26;;;;;;;8.05;3.13;;;;;;;-0.30;87.18;100506.56;4974354;28;20488;-52
2021/01/30 05:36:58;;;;;;;4.93;2.63;;;;;;;-0.32;87.36;100509.53;4974313;28;20161;-54
2021/01/30 05:39:44;;;;;;;7.80;3.55;;;;;;;-0.35;87.08;100502.59;4974360;28;20631;-54
2021/01/30 05:42:22;;;;;;;7.35;3.10;;;;;;;-0.39;87.47;100498.66;4974946;28;20082;-47
2021/01/30 05:44:54;;;;;;;8.27;3.10;;;;;;;-0.40;87.49;100510.69;4973828;28;20149;-54
2021/01/30 05:47:25;;;;;;;6.35;3.13;;;;;;;-0.39;87.70;100506.03;4974734;28;20065;-49
2021/01/30 05:50:03;;;;;;;6.97;3.10;;;;;;;-0.37;88.06;100503.91;4974029;28;20058;-53
2021/01/30 05:52:33;;;;;;;8.23;3.17;;;;;;;-0.37;87.84;100503.91;4974390;28;20057;-58
2021/01/30 05:55:00;;;;;;;6.63;3.30;;;;;;;-0.37;88.12;100498.44;4974298;28;20051;-54
2021/01/30 05:57:27;;;;;;;10.32;3.53;;;;;;;-0.36;87.73;100492.72;4974337;28;20059;-53
2021/01/30 05:59:57;;;;;;;8.30;3.50;;;;;;;-0.33;88.26;100480.44;4973693;28;20463;-53
2021/01/30 06:02:26;;;;;;;8.80;4.40;;;;;;;-0.33;88.03;100482.34;4973930;28;20047;-56
2021/01/30 06:04:53;;;;;;;9.35;3.53;;;;;;;-0.30;88.57;100476.41;4973102;28;20046;-54
2021/01/30 06:07:31;;;;;;;8.80;3.50;;;;;;;-0.29;88.20;100480.81;4974377;28;20133;-51
2021/01/30 06:09:59;;;;;;;7.75;3.50;;;;;;;-0.31;88.64;100470.06;4973942;28;20072;-50
2021/01/30 06:12:29;;;;;;;7.47;3.75;;;;;;;-0.28;88.37;100477.00;4973581;28;20046;-54
2021/01/30 06:15:07;;;;;;;8.15;4.32;;;;;;;-0.27;87.83;100478.66;4973842;28;20058;-54
2021/01/30 06:17:34;;;;;;;7.45;4.00;;;;;;;-0.26;88.17;100478.44;4974180;28;20061;-56
2021/01/30 06:20:15;;;;;;;8.38;3.40;;;;;;;-0.25;88.17;100477.38;4973537;28;20049;-57
2021/01/30 06:22:43;;;;;;;7.90;3.78;;;;;;;-0.23;87.80;100474.38;4974072;28;20228;-55
2021/01/30 06:25:25;;;;;;;7.05;3.83;;;;;;;-0.22;88.05;100473.31;4973261;28;20057;-54
2021/01/30 06:27:55;;;;;;;10.85;3.67;;;;;;;-0.22;88.26;100476.06;4973358;28;20130;-53
2021/01/30 06:30:37;;;;;;;7.88;3.85;;;;;;;-0.23;87.69;100474.38;4972259;28;20496;-56
2021/01/30 06:33:07;;;;;;;;;;;;;;;-0.25;88.08;100471.03;4973708;28;20527;-54
2021/01/30 06:35:39;;;;;;;5.93;2.95;;;;;;;-0.26;88.60;100478.44;4972927;28;19926;-54
2021/01/30 06:38:13;;;;;;;8.20;3.65;;;;;;;-0.23;88.09;100480.69;4973701;28;20055;-47
2021/01/30 06:40:52;;;;;;;9.30;3.65;;;;;;;-0.24;88.14;100481.78;4972792;28;20042;-49
2021/01/30 06:43:27;;;;;;;7.30;3.58;;;;;;;-0.23;87.58;100483.44;4973381;28;20579;-51
2021/01/30 06:46:05;;;;;;;7.80;3.50;;;;;;;-0.22;87.99;100487.03;4972841;28;20130;-48
2021/01/30 06:48:37;;;;;;;7.38;3.65;;;;;;;-0.21;87.32;100488.69;4972950;28;20051;-55
2021/01/30 06:51:20;;;;;;;7.18;3.58;;;;;;;-0.24;87.64;100484.50;4973046;28;20089;-47
2021/01/30 06:53:48;;;;;;;8.25;3.83;;;;;;;-0.23;87.30;100488.09;4973000;28;20385;-49
2021/01/30 06:56:18;;;;;;;9.40;4.60;;;;;;;-0.21;88.13;100488.69;4972800;28;20089;-50
2021/01/30 06:58:46;;;;;;;9.80;4.05;;;;;;;-0.20;87.79;100487.63;4973524;28;20085;-49
2021/01/30 07:01:16;;;;;;;11.18;4.63;;;;;;;-0.24;87.79;100491.91;4972159;28;20666;-54
2021/01/30 07:04:03;;;;;;;12.93;4.38;;;;;;;-0.24;87.82;100486.41;4970470;28;20053;-48
2021/01/30 07:06:42;;;;;;;6.82;3.53;;;;;;;-0.26;87.54;100478.44;4971899;28;20058;-52
2021/01/30 07:09:23;;;;;;;10.60;4.85;;;;;;;-0.27;88.08;100484.16;4971919;28;20522;-49
2021/01/30 07:11:54;;;;;;;13.05;4.50;;;;;;;-0.29;87.68;100491.78;4971898;28;20050;-52
2021/01/30 07:14:33;;;;;;;8.73;3.97;;;;;;;-0.30;87.61;100490.09;4971841;28;20055;-54
2021/01/30 07:17:06;;;;;;;9.77;4.47;;;;;;;-0.32;87.72;100497.72;4970453;28;20445;-50
2021/01/30 07:19:47;;;;;;;9.98;4.70;;;;;;;-0.35;88.31;100493.53;4971532;28;20603;-50
2021/01/30 07:22:18;;;;;;;11.45;5.35;;;;;;;-0.36;87.91;100486.41;4970388;28;20141;-56
2021/01/30 07:24:50;;;;;;;11.10;5.80;;;;;;;-0.39;88.40;100489.59;4971272;28;20062;-49
2021/01/30 07:27:22;;;;;;;13.52;5.13;;;;;;;-0.41;88.44;100492.59;4970121;28;20588;-53
2021/01/30 07:29:51;;;;;;;;;;;;;;;-0.45;88.78;100487.81;4971166;28;20045;-48
2021/01/30 07:32:26;;;;;;;8.60;5.00;;;;;;;-0.48;88.40;100488.28;4971532;28;19926;-51
2021/01/30 07:35:03;;;;;;;9.50;4.80;;;;;;;-0.46;87.72;100494.38;4961662;28;20416;-50
2021/01/30 07:37:49;;;;;;;11.68;5.47;;;;;;;-0.48;88.10;100494.63;4971094;28;20227;-50
2021/01/30 07:40:21;;;;;;;9.98;5.05;;;;;;;-0.47;87.92;100495.44;4963335;28;20490;-48
2021/01/30 07:42:54;;;;;;;9.55;5.55;;;;;;;-0.47;88.37;100495.44;4970023;28;20043;-48
2021/01/30 07:45:23;;;;;;;8.75;5.40;;;;;;;-0.47;88.36;100498.19;4971288;28;20571;-46
2021/01/30 07:47:56;;;;;;;12.65;6.28;;;;;;;-0.47;88.70;100507.25;4971329;28;20133;-49
2021/01/30 07:50:27;;;;;;;12.77;5.93;;;;;;;-0.43;88.63;100502.13;4958652;28;20433;-47
2021/01/30 07:53:08;;;;;;;12.47;5.70;;;;;;;-0.43;88.90;100513.94;4971575;28;20043;-46
2021/01/30 07:55:37;;;;;;;14.88;6.95;;;;;;;-0.44;88.41;100517.75;4961973;28;20712;-46
2021/01/30 07:58:23;;;;;;;11.02;5.47;;;;;;;-0.39;88.31;100506.03;4970604;28;20226;-50
2021/01/30 08:01:02;;;;;;;12.23;5.95;;;;;;;-0.39;88.64;100508.78;4962081;28;20442;-49
2021/01/30 08:03:51;;;;;;;10.23;6.03;;;;;;;-0.37;88.22;100510.22;4970993;28;20484;-46
2021/01/30 08:06:28;;;;;;;11.02;6.35;;;;;;;-0.35;88.12;100510.81;4971111;28;20476;-45
2021/01/30 08:09:05;;;;;;;9.57;5.70;;;;;;;-0.31;88.21;100510.34;4970922;28;20050;-50
2021/01/30 08:11:38;;;;;;;14.75;6.50;;;;;;;-0.27;88.40;100506.09;4970527;28;20146;-48
2021/01/30 08:14:24;;;;;;;12.50;5.72;;;;;;;-0.20;88.33;100513.09;4971354;28;20046;-52
2021/01/30 08:17:02;;;;;;;8.73;5.50;;;;;;;-0.19;87.80;100520.25;4971348;28;20471;-51
2021/01/30 08:19:39;;;;;;;9.77;5.43;;;;;;;-0.15;88.14;100520.63;4970297;28;20384;-54
2021/01/30 08:22:12;;;;;;;9.38;5.22;;;;;;;-0.14;87.97;100525.03;4971054;28;20203;-51
2021/01/30 08:24:45;;;;;;;11.38;6.00;;;;;;;-0.11;87.54;100521.81;4971107;28;20047;-49
2021/01/30 08:27:18;;;;;;;12.35;6.00;;;;;;;-0.05;87.58;100520.88;4973054;28;20089;-49
2021/01/30 08:29:48;;;;;;;14.55;5.90;;;;;;;0.02;87.76;100515.25;4974713;28;20062;-52
2021/01/30 08:32:33;;;;;;;8.93;5.15;;;;;;;0.03;87.38;100509.53;4974134;28;20053;-50
2021/01/30 08:35:36;;;;;;;11.40;5.25;;;;;;;0.06;87.55;100506.31;4966240;28;20047;-64
2021/01/30 08:38:07;;;;;;;10.55;5.20;;;;;;;0.03;86.49;100506.78;4974028;28;20066;-46
2021/01/30 08:40:46;;;;;;;12.85;5.40;;;;;;;0.07;87.32;100505.25;4973598;28;20050;-50
2021/01/30 08:43:22;;;;;;;11.50;5.38;;;;;;;0.11;86.46;100508.34;4974660;28;20097;-53
2021/01/30 08:45:49;;;;;;;9.95;5.05;;;;;;;0.11;86.37;100498.22;4974445;28;20145;-49
2021/01/30 08:48:28;;;;;;;11.73;5.68;;;;;;;0.15;86.56;100498.59;4974098;28;20396;-46
2021/01/30 08:50:57;;;;;;;11.48;5.88;;;;;;;0.13;86.31;100504.31;4971094;28;20156;-51
2021/01/30 08:53:34;;;;;;;13.30;6.15;;;;;;;0.10;85.94;100495.72;4974097;28;20049;-51
2021/01/30 08:56:03;;;;;;;11.63;5.80;;;;;;;0.12;86.12;100504.53;4974319;28;20154;-48
2021/01/30 08:58:46;;;;;;;11.07;5.82;;;;;;;0.17;85.68;100512.91;4974604;28;20210;-47
2021/01/30 09:01:42;;;;;;;9.05;5.25;;;;;;;0.26;86.04;100492.22;4969175;28;20287;-51
2021/01/30 09:04:44;;;;;;;10.45;5.30;;;;;;;0.38;85.42;100495.81;4955336;28;20141;-51
2021/01/30 09:07:41;;;;;;;10.38;5.35;;;;;;;0.73;85.54;100492.97;4914295;29;20052;-44
2021/01/30 09:10:17;;;;;;;12.07;5.55;;;;;;;1.00;83.94;100484.97;4914334;29;20533;-51
2021/01/30 09:12:55;;;;;;;13.35;5.90;;;;;;;1.66;83.62;100484.25;4955700;28;20042;-53
2021/01/30 09:15:58;;;;;;;11.35;5.68;;;;;;;2.37;82.02;100484.50;4973177;28;20042;-47
2021/01/30 09:18:48;;;;;;;12.20;5.82;;;;;;;2.52;79.93;100481.13;4965078;28;20050;-52
2021/01/30 09:21:22;;;;;;;9.63;5.28;;;;;;;2.24;78.87;100480.19;4973648;28;20394;-47
2021/01/30 09:23:59;;;;;;;9.18;5.15;;;;;;;1.97;78.79;100473.75;4972349;28;20483;-47
2021/01/30 09:26:40;;;;;;;8.73;5.13;;;;;;;1.68;78.65;100459.25;4973360;28;20059;-49
2021/01/30 09:29:08;;;;;;;8.68;5.32;;;;;;;1.43;79.12;100456.06;4973483;28;20058;-51
2021/01/30 09:31:36;;;;;;;11.05;5.00;;;;;;;1.21;79.05;100469.69;4973435;28;20055;-54
2021/01/30 09:34:05;;;;;;;10.50;5.35;;;;;;;1.00;79.52;100477.56;4974009;28;20047;-51
2021/01/30 09:36:37;;;;;;;9.93;5.00;;;;;;;0.96;80.39;100489.31;4973134;28;20479;-49
2021/01/30 09:39:20;;;;;;;9.60;4.93;;;;;;;0.94;80.53;100483.22;4972754;28;20070;-51
2021/01/30 09:41:47;;;;;;;10.95;5.32;;;;;;;0.90;80.63;100491.13;4973780;28;20038;-55
2021/01/30 09:44:20;;;;;;;9.13;5.22;;;;;;;0.92;80.69;100491.72;4973235;28;20055;-53
2021/01/30 09:46:51;;;;;;;9.13;5.35;;;;;;;0.96;80.47;100492.06;4973566;28;20482;-50
2021/01/30 09:49:22;;;;;;;8.70;5.40;;;;;;;1.04;80.56;100497.97;4962987;28;20488;-50
2021/01/30 09:51:50;;;;;;;9.43;5.57;;;;;;;1.02;80.52;100493.81;4973117;28;20058;-49
2021/01/30 09:54:18;;;;;;;10.52;5.45;;;;;;;1.04;80.42;100499.88;4973610;28;20145;-52
2021/01/30 09:56:46;;;;;;;8.85;4.95;;;;;;;0.97;80.32;100496.47;4972878;28;20047;-50
2021/01/30 09:59:22;;;;;;;9.52;4.97;;;;;;;0.91;80.43;100503.78;4973425;28;20047;-48
2021/01/30 10:01:50;;;;;;;9.68;4.47;;;;;;;0.92;81.02;100499.94;4972900;28;20393;-52
2021/01/30 10:04:21;;;;;;;8.90;5.18;;;;;;;0.98;81.16;100501.72;4966946;28;20567;-51
2021/01/30 10:06:48;;;;;;;12.05;6.22;;;;;;;1.11;80.15;100503.34;4957516;28;20086;-51
2021/01/30 10:09:18;;;;;;;9.85;6.03;;;;;;;1.20;80.17;100506.53;4972968;28;20062;-51
2021/01/30 10:11:48;;;;;;;11.13;5.43;;;;;;;1.31;79.67;100502.88;4972826;28;20496;-50
2021/01/30 10:14:19;;;;;;;8.95;5.53;;;;;;;1.22;79.26;100507.09;4971299;28;20050;-56
2021/01/30 10:16:58;;;;;;;11.80;6.00;;;;;;;1.09;78.80;100504.66;4973412;28;20086;-56
2021/01/30 10:19:28;;;;;;;10.70;5.90;;;;;;;1.10;79.14;100501.66;4971419;28;20145;-50
2021/01/30 10:21:56;;;;;;;8.30;5.50;;;;;;;1.07;79.28;100493.06;4973189;28;20066;-54
2021/01/30 10:24:25;;;;;;;10.40;5.55;;;;;;;0.98;79.02;100496.22;4971709;28;20046;-54
2021/01/30 10:26:55;;;;;;;9.98;5.97;;;;;;;0.89;79.16;100494.09;4966738;28;20058;-55
2021/01/30 10:29:23;;;;;;;9.52;5.70;;;;;;;0.85;79.63;100499.25;4972686;28;20404;-53
2021/01/30 10:31:57;;;;;;;10.18;6.07;;;;;;;0.76;79.41;100499.91;4972331;28;20102;-50
2021/01/30 10:34:29;;;;;;;9.32;5.55;;;;;;;0.66;79.74;100495.84;4971039;28;20178;-55
2021/01/30 10:37:01;;;;;;;10.95;6.07;;;;;;;0.62;80.29;100499.31;4972211;28;20061;-52
2021/01/30 10:39:32;;;;;;;11.07;6.13;;;;;;;0.52;80.05;100486.22;4971861;28;20342;-52
2021/01/30 10:42:04;;;;;;;10.75;6.05;;;;;;;0.54;80.77;100491.47;4972782;28;20051;-55
2021/01/30 10:44:32;;;;;;;10.10;5.80;;;;;;;0.49;80.47;100492.19;4972255;28;20047;-50
2021/01/30 10:47:02;;;;;;;10.60;5.85;;;;;;;0.42;81.16;100493.41;4971943;28;20055;-49
2021/01/30 10:49:31;;;;;;;9.65;5.63;;;;;;;0.42;81.12;100499.72;4972025;28;20043;-51
2021/01/30 10:52:07;;;;;;;12.80;5.95;;;;;;;0.57;81.37;100491.00;4972360;28;20162;-57
2021/01/30 10:54:34;;;;;;;10.30;6.13;;;;;;;0.76;81.25;100483.41;4971521;28;20405;-53
2021/01/30 10:57:20;;;;;;;10.68;6.13;;;;;;;0.89;80.58;100494.94;4972100;28;20050;-54
2021/01/30 10:59:50;;;;;;;10.57;6.38;;;;;;;1.06;79.61;100503.22;4971895;28;20050;-58
2021/01/30 11:02:37;;;;;;;14.00;5.90;;;;;;;1.10;79.37;100503.56;4971488;28;20540;-54
2021/01/30 11:05:09;;;;;;;11.65;6.38;;;;;;;1.14;79.24;100500.09;4971987;28;20138;-51
2021/01/30 11:07:38;;;;;;;10.98;6.55;;;;;;;1.14;78.83;100502.00;4971376;28;20069;-54
2021/01/30 11:10:07;;;;;;;11.23;5.97;;;;;;;1.14;78.78;100502.84;4971860;28;20159;-57
2021/01/30 11:12:34;;;;;;;8.88;5.45;;;;;;;1.15;78.86;100503.69;4971715;28;20416;-60
2021/01/30 11:15:15;;;;;;;10.25;5.70;;;;;;;1.15;79.23;100510.00;4971076;28;20382;-54
2021/01/30 11:17:43;;;;;;;9.27;5.65;;;;;;;1.11;78.92;100513.50;4972198;28;20117;-60
2021/01/30 11:20:11;;;;;;;11.23;6.40;;;;;;;1.00;79.07;100506.94;4971540;28;20046;-63
2021/01/30 11:22:38;;;;;;;10.40;5.97;;;;;;;1.03;78.65;100512.78;4971054;28;20057;-59
2021/01/30 11:25:10;;;;;;;8.23;5.85;;;;;;;1.14;78.76;100507.50;4971576;28;20077;-59
2021/01/30 11:27:41;;;;;;;11.25;5.63;;;;;;;1.06;78.16;100505.16;4961921;28;20047;-65
2021/01/30 11:30:15;;;;;;;11.13;6.65;;;;;;;1.00;78.63;100505.03;4971065;28;20141;-60
2021/01/30 11:32:59;;;;;;;7.90;4.85;;;;;;;0.94;78.60;100502.44;4962790;28;20073;-59
2021/01/30 11:35:29;;;;;;;9.93;5.43;;;;;;;0.91;79.04;100498.28;4970924;28;20052;-62
2021/01/30 11:37:58;;;;;;;12.35;6.30;;;;;;;0.96;78.63;100489.31;4967761;28;20514;-57
2021/01/30 11:40:24;;;;;;;8.90;5.63;;;;;;;1.06;79.08;100491.41;4971679;28;20041;-62
2021/01/30 11:42:52;;;;;;;9.15;6.35;;;;;;;1.06;78.72;100485.91;4970693;28;20079;-57
2021/01/30 11:45:19;;;;;;;8.77;5.55;;;;;;;1.09;78.29;100482.69;4971525;28;20472;-58
2021/01/30 11:47:46;;;;;;;11.23;6.43;;;;;;;1.14;78.84;100472.63;4977460;28;20049;-57
2021/01/30 11:50:14;;;;;;;8.07;5.25;;;;;;;1.13;78.87;100475.63;4970454;28;20138;-59
2021/01/30 11:52:40;;;;;;;9.63;5.88;;;;;;;1.11;78.47;100477.78;4971082;28;20038;-54
2021/01/30 11:55:09;;;;;;;8.88;5.53;;;;;;;1.09;78.47;100474.44;4971498;28;20106;-56